createdAt,value
2018-12-11T00:00:16.521Z,8.60
2018-12-11T00:02:43.973Z,8.60
2018-12-11T00:05:11.345Z,8.50
2018-12-11T00:07:39.507Z,8.50
2018-12-11T00:10:06.882Z,8.50
2018-12-11T00:12:34.908Z,8.50
2018-12-11T00:15:03.559Z,8.50
2018-12-11T00:17:31.464Z,8.50
2018-12-11T00:19:58.782Z,8.50
2018-12-11T00:22:26.121Z,8.50
2018-12-11T00:36:13.064Z,8.50
2018-12-11T00:38:41.207Z,8.50
2018-12-11T00:41:08.486Z,8.60
2018-12-11T00:43:36.246Z,8.50
2018-12-11T00:46:03.751Z,8.50
2018-12-11T00:48:32.372Z,8.50
2018-12-11T00:50:59.713Z,8.50
2018-12-11T00:53:27.143Z,8.50
2018-12-11T00:55:55.112Z,8.50
2018-12-11T00:58:22.551Z,8.50
2018-12-11T01:00:50.842Z,8.50
2018-12-11T01:03:18.182Z,8.50
2018-12-11T01:05:45.537Z,8.60
2018-12-11T01:08:12.907Z,8.50
2018-12-11T01:10:40.225Z,8.40
2018-12-11T01:13:07.764Z,8.50
2018-12-11T01:15:35.095Z,8.50
2018-12-11T01:18:03.008Z,8.50
2018-12-11T01:20:30.630Z,8.50
2018-12-11T01:22:57.987Z,8.60
2018-12-11T01:25:25.411Z,8.50
2018-12-11T01:27:53.176Z,8.40
2018-12-11T01:30:20.987Z,8.70
2018-12-11T01:32:49.161Z,8.60
2018-12-11T01:35:17.295Z,8.50
2018-12-11T01:37:44.650Z,8.40
2018-12-11T01:40:12.455Z,8.50
2018-12-11T01:42:40.207Z,8.40
2018-12-11T01:45:09.128Z,8.50
2018-12-11T01:47:37.498Z,8.40
2018-12-11T01:50:05.157Z,8.40
2018-12-11T01:52:32.490Z,8.50
2018-12-11T01:54:59.805Z,8.40
2018-12-11T01:57:27.470Z,8.50
2018-12-11T01:59:55.782Z,8.50
2018-12-11T02:02:23.211Z,8.50
2018-12-11T02:04:50.618Z,8.60
2018-12-11T02:07:18.191Z,8.60
2018-12-11T02:09:45.627Z,8.50
2018-12-11T02:12:13.023Z,8.50
2018-12-11T02:14:41.512Z,8.40
2018-12-11T02:17:09.540Z,8.50
2018-12-11T02:19:37.541Z,8.60
2018-12-11T02:22:04.911Z,8.50
2018-12-11T02:24:32.911Z,8.50
2018-12-11T02:27:01.181Z,8.50
2018-12-11T02:29:29.160Z,8.50
2018-12-11T02:31:57.155Z,8.40
2018-12-11T02:34:24.615Z,8.50
2018-12-11T02:36:52.589Z,8.50
2018-12-11T02:39:21.487Z,8.40
2018-12-11T02:41:49.569Z,8.40
2018-12-11T02:44:17.411Z,8.40
2018-12-11T02:46:44.945Z,8.40
2018-12-11T02:49:12.702Z,8.40
2018-12-11T02:51:40.034Z,8.40
2018-12-11T02:54:08.438Z,8.40
2018-12-11T02:56:37.792Z,8.50
2018-12-11T02:59:06.021Z,8.50
2018-12-11T03:01:35.237Z,8.40
2018-12-11T03:04:02.771Z,8.40
2018-12-11T03:06:30.431Z,8.50
2018-12-11T03:08:57.961Z,8.50
2018-12-11T03:11:25.579Z,8.50
2018-12-11T03:13:53.157Z,8.40
2018-12-11T03:16:20.731Z,8.50
2018-12-11T03:18:48.617Z,8.50
2018-12-11T03:21:16.025Z,8.50
2018-12-11T03:23:43.276Z,8.50
2018-12-11T03:26:12.189Z,8.50
2018-12-11T03:28:39.603Z,8.50
2018-12-11T03:31:06.938Z,8.40
2018-12-11T03:33:34.493Z,8.50
2018-12-11T03:36:02.060Z,8.40
2018-12-11T03:38:29.690Z,8.40
2018-12-11T03:40:57.435Z,8.40
2018-12-11T03:43:24.698Z,8.40
2018-12-11T03:45:52.060Z,8.30
2018-12-11T03:48:20.944Z,8.30
2018-12-11T03:50:49.689Z,8.40
2018-12-11T03:53:17.277Z,8.40
2018-12-11T03:55:45.932Z,8.50
2018-12-11T03:58:13.575Z,8.50
2018-12-11T04:00:41.236Z,8.40
2018-12-11T04:03:10.314Z,8.40
2018-12-11T04:05:37.684Z,8.40
2018-12-11T04:08:05.845Z,8.40
2018-12-11T04:10:33.143Z,8.30
2018-12-11T04:13:01.363Z,8.40
2018-12-11T04:15:30.082Z,8.40
2018-12-11T04:17:57.991Z,8.40
2018-12-11T04:20:27.349Z,8.50
2018-12-11T04:22:55.163Z,8.40
2018-12-11T04:25:23.212Z,8.40
2018-12-11T04:27:50.655Z,8.50
2018-12-11T04:30:17.913Z,8.40
2018-12-11T04:32:45.235Z,8.50
2018-12-11T04:35:12.871Z,8.50
2018-12-11T04:37:41.320Z,8.50
2018-12-11T04:40:10.056Z,8.50
2018-12-11T04:42:37.595Z,8.40
2018-12-11T04:45:06.075Z,8.40
2018-12-11T04:47:33.505Z,8.40
2018-12-11T04:50:02.499Z,8.50
2018-12-11T04:52:31.454Z,8.50
2018-12-11T04:54:58.707Z,8.50
2018-12-11T04:57:27.012Z,8.50
2018-12-11T04:59:56.151Z,8.50
2018-12-11T05:02:23.581Z,8.40
2018-12-11T05:04:52.114Z,8.40
2018-12-11T05:07:20.360Z,8.40
2018-12-11T05:09:47.701Z,8.40
2018-12-11T05:12:15.930Z,8.40
2018-12-11T05:14:44.187Z,8.40
2018-12-11T05:17:13.027Z,8.40
2018-12-11T05:19:41.497Z,8.40
2018-12-11T05:22:09.242Z,8.40
2018-12-11T05:24:37.466Z,8.40
2018-12-11T05:27:06.006Z,8.40
2018-12-11T05:29:33.970Z,8.40
2018-12-11T05:32:03.227Z,8.40
2018-12-11T05:34:31.414Z,8.40
2018-12-11T05:36:59.102Z,8.40
2018-12-11T05:39:26.859Z,8.40
2018-12-11T05:41:54.760Z,8.30
2018-12-11T05:44:22.461Z,8.30
2018-12-11T05:46:50.326Z,8.30
2018-12-11T05:49:17.687Z,8.30
2018-12-11T05:51:46.705Z,8.30
2018-12-11T05:54:14.549Z,8.20
2018-12-11T05:56:43.246Z,8.20
2018-12-11T05:59:11.171Z,8.20
2018-12-11T06:01:39.559Z,8.20
2018-12-11T06:04:07.515Z,8.20
2018-12-11T06:06:34.895Z,8.30
2018-12-11T06:09:03.141Z,8.30
2018-12-11T06:11:30.595Z,8.30
2018-12-11T06:13:58.462Z,8.20
2018-12-11T06:16:27.098Z,8.10
2018-12-11T06:18:54.582Z,8.30
2018-12-11T06:21:22.564Z,8.20
2018-12-11T06:23:49.866Z,8.20
2018-12-11T06:26:17.623Z,8.20
2018-12-11T06:28:44.928Z,8.30
2018-12-11T06:31:12.771Z,8.20
2018-12-11T06:33:40.274Z,8.30
2018-12-11T06:36:08.035Z,8.30
2018-12-11T06:38:35.980Z,8.20
2018-12-11T06:41:03.464Z,8.10
2018-12-11T06:43:30.890Z,8.10
2018-12-11T06:45:59.038Z,8.20
2018-12-11T06:48:27.451Z,8.20
2018-12-11T06:50:55.399Z,8.10
2018-12-11T06:53:23.499Z,8.10
2018-12-11T06:55:51.722Z,8.00
2018-12-11T06:58:19.574Z,8.10
2018-12-11T07:00:48.557Z,8.10
2018-12-11T07:03:16.398Z,8.10
2018-12-11T07:05:44.049Z,8.10
2018-12-11T07:08:15.967Z,8.20
2018-12-11T07:10:43.290Z,8.20
2018-12-11T07:13:10.946Z,8.20
2018-12-11T07:15:39.009Z,8.20
2018-12-11T07:18:06.336Z,8.30
2018-12-11T07:20:34.006Z,8.30
2018-12-11T07:23:01.917Z,8.20
2018-12-11T07:25:29.543Z,8.30
2018-12-11T07:27:58.441Z,8.30
2018-12-11T07:30:26.219Z,8.30
2018-12-11T07:32:53.568Z,8.40
2018-12-11T07:35:20.913Z,8.30
2018-12-11T07:37:49.334Z,8.30
2018-12-11T07:40:17.192Z,8.30
2018-12-11T07:42:44.538Z,8.30
2018-12-11T07:45:13.957Z,8.40
2018-12-11T07:47:41.310Z,8.30
2018-12-11T07:50:09.755Z,8.30
2018-12-11T07:52:37.494Z,8.30
2018-12-11T07:55:05.444Z,8.30
2018-12-11T07:57:33.038Z,8.30
2018-12-11T08:00:01.526Z,8.30
2018-12-11T08:02:29.127Z,8.30
2018-12-11T08:04:56.583Z,8.40
2018-12-11T08:07:23.937Z,8.30
2018-12-11T08:09:51.253Z,8.30
2018-12-11T08:12:18.634Z,8.30
2018-12-11T08:14:47.413Z,8.30
2018-12-11T08:17:14.731Z,8.30
2018-12-11T08:19:42.086Z,8.30
2018-12-11T08:22:09.472Z,8.30
2018-12-11T08:24:37.531Z,8.30
2018-12-11T08:27:05.358Z,8.20
2018-12-11T08:29:33.959Z,8.30
2018-12-11T08:32:02.357Z,8.30
2018-12-11T08:34:29.779Z,8.30
2018-12-11T08:36:57.153Z,8.40
2018-12-11T08:39:24.524Z,8.30
2018-12-11T08:41:51.925Z,8.20
2018-12-11T08:44:19.507Z,8.20
2018-12-11T08:46:48.849Z,8.30
2018-12-11T08:49:16.395Z,8.30
2018-12-11T08:51:44.582Z,8.30
2018-12-11T08:54:12.072Z,8.30
2018-12-11T08:56:40.731Z,8.40
2018-12-11T08:59:09.094Z,8.40
2018-12-11T09:01:37.546Z,8.50
2018-12-11T09:04:06.172Z,8.50
2018-12-11T09:06:33.804Z,8.50
2018-12-11T09:09:01.396Z,8.50
2018-12-11T09:11:29.683Z,8.50
2018-12-11T09:13:56.999Z,8.60
2018-12-11T09:16:24.419Z,8.60
2018-12-11T09:18:52.167Z,8.60
2018-12-11T09:21:19.627Z,8.60
2018-12-11T09:23:47.583Z,8.50
2018-12-11T09:26:15.687Z,8.60
2018-12-11T09:28:43.830Z,8.50
2018-12-11T09:31:11.682Z,8.60
2018-12-11T09:33:39.361Z,8.50
2018-12-11T09:36:07.271Z,8.50
2018-12-11T09:38:34.595Z,8.50
2018-12-11T09:41:01.973Z,8.60
2018-12-11T09:43:29.328Z,8.70
2018-12-11T09:45:56.855Z,8.80
2018-12-11T09:48:24.163Z,8.80
2018-12-11T09:50:51.586Z,8.80
2018-12-11T09:53:18.932Z,8.70
2018-12-11T09:55:46.333Z,8.70
2018-12-11T09:58:13.807Z,8.70
2018-12-11T10:00:41.439Z,8.70
2018-12-11T10:03:10.382Z,8.70
2018-12-11T10:05:38.638Z,8.80
2018-12-11T10:08:06.458Z,8.80
2018-12-11T10:10:35.095Z,8.90
2018-12-11T10:13:02.945Z,8.90
2018-12-11T10:15:31.959Z,9.00
2018-12-11T10:17:59.506Z,9.00
2018-12-11T10:20:26.922Z,9.00
2018-12-11T10:22:54.703Z,9.00
2018-12-11T10:25:23.168Z,9.00
2018-12-11T10:27:51.956Z,9.10
2018-12-11T10:30:20.377Z,9.20
2018-12-11T10:32:51.388Z,9.30
2018-12-11T10:35:19.626Z,9.30
2018-12-11T10:37:49.018Z,9.30
2018-12-11T10:40:16.738Z,9.30
2018-12-11T10:42:44.498Z,9.20
2018-12-11T10:45:11.808Z,9.20
2018-12-11T10:47:40.818Z,9.20
2018-12-11T10:50:08.406Z,9.30
2018-12-11T10:52:36.413Z,9.40
2018-12-11T10:55:04.143Z,9.40
2018-12-11T10:57:33.224Z,9.50
2018-12-11T11:00:01.690Z,9.50
2018-12-11T11:02:29.138Z,9.60
2018-12-11T11:04:57.763Z,9.70
2018-12-11T11:07:25.230Z,9.70
2018-12-11T11:09:52.985Z,9.70
2018-12-11T11:12:21.462Z,9.60
2018-12-11T11:14:50.664Z,9.60
2018-12-11T11:17:18.312Z,9.60
2018-12-11T11:19:45.635Z,9.60
2018-12-11T11:22:13.056Z,9.60
2018-12-11T11:24:40.503Z,9.60
2018-12-11T11:27:07.891Z,9.60
2018-12-11T11:29:36.255Z,9.60
2018-12-11T11:32:03.605Z,9.50
2018-12-11T11:34:39.905Z,9.50
2018-12-11T11:37:07.454Z,9.50
2018-12-11T11:39:36.758Z,9.50
2018-12-11T11:42:04.938Z,9.50
2018-12-11T11:44:32.323Z,9.50
2018-12-11T11:46:59.640Z,9.50
2018-12-11T11:49:28.439Z,9.50
2018-12-11T11:51:55.747Z,9.60
2018-12-11T11:54:23.538Z,9.60
2018-12-11T11:56:50.846Z,9.60
2018-12-11T11:59:18.119Z,9.70
2018-12-11T12:01:46.294Z,9.60
2018-12-11T12:04:13.591Z,9.80
2018-12-11T12:06:41.313Z,9.60
2018-12-11T12:09:08.990Z,9.60
2018-12-11T12:11:37.326Z,9.60
2018-12-11T12:14:04.671Z,9.60
2018-12-11T12:16:32.172Z,9.60
2018-12-11T12:18:59.966Z,9.60
2018-12-11T12:21:27.514Z,9.60
2018-12-11T12:23:56.671Z,9.60
2018-12-11T12:26:24.216Z,9.60
2018-12-11T12:28:51.563Z,9.60
2018-12-11T12:31:19.497Z,9.50
2018-12-11T12:33:48.274Z,9.50
2018-12-11T12:36:16.754Z,9.40
2018-12-11T12:38:45.055Z,9.40
2018-12-11T12:41:12.899Z,9.40
2018-12-11T12:43:40.730Z,9.50
2018-12-11T12:46:08.071Z,9.50
2018-12-11T12:48:35.484Z,9.50
2018-12-11T12:51:02.968Z,9.50
2018-12-11T12:53:30.674Z,9.60
2018-12-11T12:55:58.592Z,9.50
2018-12-11T12:58:26.134Z,9.50
2018-12-11T13:00:54.091Z,9.50
2018-12-11T13:03:22.715Z,9.50
2018-12-11T13:05:50.561Z,9.60
2018-12-11T13:08:18.388Z,9.60
2018-12-11T13:10:45.729Z,9.50
2018-12-11T13:13:13.184Z,9.60
2018-12-11T13:15:40.931Z,9.60
2018-12-11T13:18:08.227Z,9.70
2018-12-11T13:20:36.197Z,9.80
2018-12-11T13:23:04.571Z,9.70
2018-12-11T13:25:32.298Z,9.70
2018-12-11T13:28:01.584Z,9.70
2018-12-11T13:30:28.872Z,9.70
2018-12-11T13:32:56.212Z,9.60
2018-12-11T13:35:25.466Z,9.60
2018-12-11T13:37:52.962Z,9.50
2018-12-11T13:40:20.901Z,9.60
2018-12-11T13:42:48.167Z,9.60
2018-12-11T13:45:17.365Z,9.60
2018-12-11T13:47:44.803Z,9.60
2018-12-11T13:50:13.289Z,9.60
2018-12-11T13:52:41.187Z,9.50
2018-12-11T13:55:08.707Z,9.40
2018-12-11T13:57:36.800Z,9.40
2018-12-11T14:00:05.091Z,9.40
2018-12-11T14:02:32.416Z,9.30
2018-12-11T14:05:00.273Z,9.30
2018-12-11T14:07:28.032Z,9.30
2018-12-11T14:09:55.835Z,9.20
2018-12-11T14:12:24.011Z,9.20
2018-12-11T14:14:52.234Z,9.30
2018-12-11T14:17:20.038Z,9.40
2018-12-11T14:19:47.905Z,9.20
2018-12-11T14:22:15.266Z,9.20
2018-12-11T14:24:42.586Z,9.20
2018-12-11T14:27:10.583Z,9.20
2018-12-11T14:29:38.070Z,9.20
2018-12-11T14:32:05.935Z,9.20
2018-12-11T14:34:33.260Z,9.20
2018-12-11T14:37:01.282Z,9.20
2018-12-11T14:39:29.102Z,9.20
2018-12-11T14:41:56.827Z,9.10
2018-12-11T14:44:25.483Z,9.10
2018-12-11T14:46:53.978Z,9.10
2018-12-11T14:49:21.517Z,9.00
2018-12-11T14:51:50.157Z,9.00
2018-12-11T14:54:17.818Z,9.00
2018-12-11T14:56:45.920Z,9.00
2018-12-11T14:59:13.499Z,9.00
2018-12-11T15:01:41.619Z,8.90
2018-12-11T15:04:09.204Z,9.00
2018-12-11T15:06:37.879Z,9.00
2018-12-11T15:09:13.210Z,8.90
2018-12-11T15:11:40.647Z,9.00
2018-12-11T15:14:08.039Z,8.90
2018-12-11T15:16:36.242Z,8.90
2018-12-11T15:19:04.067Z,8.80
2018-12-11T15:21:31.547Z,8.80
2018-12-11T15:23:59.212Z,8.80
2018-12-11T15:26:27.196Z,8.70
2018-12-11T15:28:55.574Z,8.70
2018-12-11T15:31:23.038Z,8.70
2018-12-11T15:33:51.195Z,8.70
2018-12-11T15:36:18.459Z,8.60
2018-12-11T15:38:45.818Z,8.60
2018-12-11T15:41:14.242Z,8.60
2018-12-11T15:43:41.987Z,8.60
2018-12-11T15:46:09.762Z,8.60
2018-12-11T15:48:38.900Z,8.70
2018-12-11T15:51:06.226Z,8.60
2018-12-11T15:53:33.686Z,8.60
2018-12-11T15:56:01.023Z,8.60
2018-12-11T15:58:28.380Z,8.50
2018-12-11T16:00:56.461Z,8.50
2018-12-11T16:03:23.838Z,8.40
2018-12-11T16:05:51.701Z,8.50
2018-12-11T16:08:19.206Z,8.50
2018-12-11T16:10:47.709Z,8.50
2018-12-11T16:13:15.507Z,8.40
2018-12-11T16:15:42.844Z,8.40
2018-12-11T16:18:10.628Z,8.40
2018-12-11T16:20:38.342Z,8.40
2018-12-11T16:23:06.556Z,8.40
2018-12-11T16:25:33.935Z,8.40
2018-12-11T16:28:01.501Z,8.40
2018-12-11T16:30:28.875Z,8.40
2018-12-11T16:32:56.158Z,8.40
2018-12-11T16:35:24.099Z,8.40
2018-12-11T16:37:51.962Z,8.40
2018-12-11T16:40:19.480Z,8.40
2018-12-11T16:42:48.755Z,8.40
2018-12-11T16:45:16.760Z,8.30
2018-12-11T16:47:45.078Z,8.40
2018-12-11T16:50:13.398Z,8.40
2018-12-11T16:52:40.838Z,8.40
2018-12-11T16:55:08.126Z,8.40
2018-12-11T16:57:35.957Z,8.40
2018-12-11T17:00:04.267Z,8.50
2018-12-11T17:02:31.576Z,8.30
2018-12-11T17:04:59.043Z,8.40
2018-12-11T17:07:27.665Z,8.40
2018-12-11T17:09:55.086Z,8.40
2018-12-11T17:12:22.654Z,8.40
2018-12-11T17:14:50.443Z,8.40
2018-12-11T17:17:17.774Z,8.30
2018-12-11T17:19:47.170Z,8.30
2018-12-11T17:22:15.240Z,8.30
2018-12-11T17:24:42.691Z,8.40
2018-12-11T17:27:10.154Z,8.40
2018-12-11T17:29:38.046Z,8.30
2018-12-11T17:32:08.899Z,8.30
2018-12-11T17:34:38.496Z,7.90
2018-12-11T17:37:07.946Z,8.30
2018-12-11T17:39:36.572Z,8.30
2018-12-11T17:42:05.880Z,8.30
2018-12-11T17:44:35.545Z,8.40
2018-12-11T17:47:05.296Z,8.40
2018-12-11T17:49:35.098Z,8.40
2018-12-11T17:52:04.319Z,8.40
2018-12-11T17:54:32.677Z,8.50
2018-12-11T17:57:01.638Z,8.50
2018-12-11T17:59:30.638Z,8.50
2018-12-11T18:02:04.118Z,8.50
2018-12-11T18:04:33.631Z,8.50
2018-12-11T18:07:02.124Z,8.50
2018-12-11T18:09:31.414Z,8.60
2018-12-11T18:12:00.149Z,8.60
2018-12-11T18:14:27.630Z,8.60
2018-12-11T18:16:55.689Z,8.50
2018-12-11T18:19:23.024Z,8.60
2018-12-11T18:21:50.372Z,8.50
2018-12-11T18:24:18.083Z,8.50
2018-12-11T18:26:46.786Z,8.60
2018-12-11T18:29:14.138Z,8.60
2018-12-11T18:31:42.088Z,8.60
2018-12-11T18:34:11.116Z,8.60
2018-12-11T18:36:39.330Z,8.60
2018-12-11T18:39:08.567Z,8.60
2018-12-11T18:41:37.446Z,8.60
2018-12-11T18:44:05.191Z,8.60
2018-12-11T18:46:32.830Z,8.60
2018-12-11T18:49:00.259Z,8.60
2018-12-11T18:51:28.176Z,8.60
2018-12-11T18:53:57.294Z,8.60
2018-12-11T18:56:25.019Z,8.60
2018-12-11T18:58:52.526Z,8.60
2018-12-11T19:01:20.146Z,8.60
2018-12-11T19:03:49.391Z,8.60
2018-12-11T19:06:17.228Z,8.60
2018-12-11T19:08:45.041Z,8.60
2018-12-11T19:11:12.685Z,8.60
2018-12-11T19:13:40.744Z,8.60
2018-12-11T19:16:08.558Z,8.60
2018-12-11T19:18:36.074Z,8.60
2018-12-11T19:21:05.541Z,8.60
2018-12-11T19:24:40.976Z,8.70
2018-12-11T19:27:08.420Z,8.70
2018-12-11T19:29:35.918Z,8.70
2018-12-11T19:32:10.290Z,8.60
2018-12-11T19:34:38.322Z,8.60
2018-12-11T19:37:06.985Z,8.60
2018-12-11T19:39:35.186Z,8.60
2018-12-11T19:42:03.140Z,8.60
2018-12-11T19:44:30.479Z,8.60
2018-12-11T19:46:58.464Z,8.60
2018-12-11T19:49:26.218Z,8.60
2018-12-11T19:51:54.503Z,8.60
2018-12-11T19:54:21.864Z,8.60
2018-12-11T19:56:49.309Z,8.60
2018-12-11T19:59:16.672Z,8.70
2018-12-11T20:01:44.383Z,8.60
2018-12-11T20:04:12.212Z,8.60
2018-12-11T20:06:40.175Z,8.70
2018-12-11T20:09:08.391Z,8.70
2018-12-11T20:11:35.987Z,8.70
2018-12-11T20:14:03.416Z,8.70
2018-12-11T20:16:31.717Z,8.70
2018-12-11T20:18:59.715Z,8.70
2018-12-11T20:21:27.165Z,8.70
2018-12-11T20:23:54.635Z,8.60
2018-12-11T20:26:22.130Z,8.60
2018-12-11T20:28:49.907Z,8.60
2018-12-11T20:31:17.479Z,8.60
2018-12-11T20:33:46.514Z,8.60
2018-12-11T20:36:14.754Z,8.60
2018-12-11T20:38:42.516Z,8.70
2018-12-11T20:41:10.176Z,8.60
2018-12-11T20:43:39.482Z,8.60
2018-12-11T20:46:06.863Z,8.60
2018-12-11T20:48:34.791Z,8.50
2018-12-11T20:51:02.436Z,8.60
2018-12-11T20:53:30.067Z,8.60
2018-12-11T20:56:03.468Z,8.60
2018-12-11T20:58:32.984Z,8.60
2018-12-11T21:01:00.414Z,8.60
2018-12-11T21:03:27.861Z,8.60
2018-12-11T21:05:55.672Z,8.60
2018-12-11T21:08:26.275Z,8.60
2018-12-11T21:10:54.492Z,8.70
2018-12-11T21:13:21.952Z,8.70
2018-12-11T21:15:51.077Z,8.60
2018-12-11T21:18:18.508Z,8.60
2018-12-11T21:20:55.683Z,8.60
2018-12-11T21:23:24.866Z,8.60
2018-12-11T21:25:52.318Z,8.60
2018-12-11T21:28:19.884Z,8.60
2018-12-11T21:30:48.138Z,8.60
2018-12-11T21:33:15.508Z,8.60
2018-12-11T21:35:44.206Z,8.60
2018-12-11T21:38:13.417Z,8.60
2018-12-11T21:40:42.015Z,8.50
2018-12-11T21:43:09.522Z,8.60
2018-12-11T21:45:37.078Z,8.60
2018-12-11T21:48:04.800Z,8.70
2018-12-11T21:50:32.241Z,8.70
2018-12-11T21:53:00.126Z,8.60
2018-12-11T21:55:27.602Z,8.60
2018-12-11T21:57:54.943Z,8.50
2018-12-11T22:00:22.566Z,8.50
2018-12-11T22:02:50.575Z,8.50
2018-12-11T22:05:19.880Z,8.60
2018-12-11T22:07:47.264Z,8.60
2018-12-11T22:10:14.926Z,8.60
2018-12-11T22:12:42.543Z,8.50
2018-12-11T22:15:09.963Z,8.60
2018-12-11T22:17:37.989Z,8.60
2018-12-11T22:20:07.337Z,8.60
2018-12-11T22:22:35.075Z,8.50
2018-12-11T22:25:02.796Z,8.50
2018-12-11T22:27:30.106Z,8.60
2018-12-11T22:29:57.514Z,8.50
2018-12-11T22:32:24.882Z,8.60
2018-12-11T22:34:52.627Z,8.60
2018-12-11T22:37:22.034Z,8.70
2018-12-11T22:39:49.473Z,8.70
2018-12-11T22:42:17.308Z,8.60
2018-12-11T22:44:44.693Z,8.60
2018-12-11T22:47:12.503Z,8.60
2018-12-11T22:49:40.752Z,8.60
2018-12-11T22:52:08.601Z,8.60
2018-12-11T22:54:36.340Z,8.60
2018-12-11T22:57:05.610Z,8.60
2018-12-11T22:59:33.139Z,8.60
2018-12-11T23:02:02.722Z,8.60
2018-12-11T23:04:30.519Z,8.60
2018-12-11T23:06:58.510Z,8.60
2018-12-11T23:09:26.460Z,8.60
2018-12-11T23:11:54.623Z,8.60
2018-12-11T23:14:21.971Z,8.60
2018-12-11T23:16:49.680Z,8.50
2018-12-11T23:19:17.523Z,8.60
2018-12-11T23:21:45.418Z,8.60
2018-12-11T23:24:12.973Z,8.60
2018-12-11T23:26:40.730Z,8.60
2018-12-11T23:29:08.399Z,8.60
2018-12-11T23:31:35.724Z,8.60
2018-12-11T23:34:04.946Z,8.60
2018-12-11T23:36:32.712Z,8.60
2018-12-11T23:39:00.558Z,8.60
2018-12-11T23:41:28.199Z,8.60
2018-12-11T23:43:55.522Z,8.60
2018-12-11T23:46:23.199Z,8.60
2018-12-11T23:48:50.548Z,8.60
2018-12-11T23:51:18.839Z,8.50
2018-12-11T23:53:46.636Z,8.60
2018-12-11T23:56:13.900Z,8.60
2018-12-11T23:58:41.438Z,8.50
